sensor_id;sensor_type;location;lat;lon;timestamp;P1;durP1;ratioP1;P2;durP2;ratioP2
62258;SDS011;48241;48.824;10.102;2023-04-24T00:00:45;2.78;;;0.80;;
62258;SDS011;48241;48.824;10.102;2023-04-24T00:03:12;1.15;;;0.70;;
62258;SDS011;48241;48.824;10.102;2023-04-24T00:05:37;3.33;;;0.80;;
62258;SDS011;48241;48.824;10.102;2023-04-24T00:08:05;2.03;;;0.75;;
62258;SDS011;48241;48.824;10.102;2023-04-24T00:10:31;2.50;;;0.60;;
62258;SDS011;48241;48.824;10.102;2023-04-24T00:12:56;2.75;;;0.60;;
62258;SDS011;48241;48.824;10.102;2023-04-24T00:15:22;1.80;;;0.70;;
62258;SDS011;48241;48.824;10.102;2023-04-24T00:17:48;0.77;;;0.70;;
62258;SDS011;48241;48.824;10.102;2023-04-24T00:20:13;1.40;;;0.65;;
62258;SDS011;48241;48.824;10.102;2023-04-24T00:22:39;1.48;;;0.60;;
62258;SDS011;48241;48.824;10.102;2023-04-24T00:25:05;2.10;;;0.60;;
62258;SDS011;48241;48.824;10.102;2023-04-24T00:27:31;1.35;;;0.70;;
62258;SDS011;48241;48.824;10.102;2023-04-24T00:29:57;1.70;;;0.70;;
62258;SDS011;48241;48.824;10.102;2023-04-24T00:32:22;1.05;;;0.80;;
62258;SDS011;48241;48.824;10.102;2023-04-24T00:34:48;1.23;;;0.68;;
62258;SDS011;48241;48.824;10.102;2023-04-24T00:37:14;2.38;;;0.70;;
62258;SDS011;48241;48.824;10.102;2023-04-24T00:39:40;0.75;;;0.70;;
62258;SDS011;48241;48.824;10.102;2023-04-24T00:42:05;1.42;;;0.50;;
62258;SDS011;48241;48.824;10.102;2023-04-24T00:44:32;1.02;;;0.40;;
62258;SDS011;48241;48.824;10.102;2023-04-24T00:46:59;2.92;;;0.80;;
62258;SDS011;48241;48.824;10.102;2023-04-24T00:49:25;1.55;;;0.70;;
62258;SDS011;48241;48.824;10.102;2023-04-24T00:51:52;2.40;;;0.82;;
62258;SDS011;48241;48.824;10.102;2023-04-24T00:54:18;1.88;;;0.70;;
62258;SDS011;48241;48.824;10.102;2023-04-24T00:56:45;1.80;;;0.60;;
62258;SDS011;48241;48.824;10.102;2023-04-24T00:59:12;1.27;;;0.60;;
62258;SDS011;48241;48.824;10.102;2023-04-24T01:01:39;1.75;;;0.50;;
62258;SDS011;48241;48.824;10.102;2023-04-24T01:04:08;1.25;;;0.60;;
62258;SDS011;48241;48.824;10.102;2023-04-24T01:06:36;1.75;;;0.75;;
62258;SDS011;48241;48.824;10.102;2023-04-24T01:09:04;2.83;;;0.80;;
62258;SDS011;48241;48.824;10.102;2023-04-24T01:11:30;3.88;;;0.77;;
62258;SDS011;48241;48.824;10.102;2023-04-24T01:13:56;2.75;;;0.70;;
62258;SDS011;48241;48.824;10.102;2023-04-24T01:16:23;1.70;;;0.75;;
62258;SDS011;48241;48.824;10.102;2023-04-24T01:18:48;3.55;;;0.90;;
62258;SDS011;48241;48.824;10.102;2023-04-24T01:21:15;3.83;;;0.80;;
62258;SDS011;48241;48.824;10.102;2023-04-24T01:23:42;1.10;;;0.80;;
62258;SDS011;48241;48.824;10.102;2023-04-24T01:26:11;6.70;;;0.80;;
62258;SDS011;48241;48.824;10.102;2023-04-24T01:28:37;1.25;;;0.70;;
62258;SDS011;48241;48.824;10.102;2023-04-24T01:31:03;2.70;;;0.93;;
62258;SDS011;48241;48.824;10.102;2023-04-24T01:33:29;0.77;;;0.70;;
62258;SDS011;48241;48.824;10.102;2023-04-24T01:35:54;1.52;;;0.70;;
62258;SDS011;48241;48.824;10.102;2023-04-24T01:38:20;1.77;;;0.60;;
62258;SDS011;48241;48.824;10.102;2023-04-24T01:40:46;2.28;;;0.80;;
62258;SDS011;48241;48.824;10.102;2023-04-24T01:43:12;1.95;;;0.60;;
62258;SDS011;48241;48.824;10.102;2023-04-24T01:45:38;1.08;;;0.80;;
62258;SDS011;48241;48.824;10.102;2023-04-24T01:48:04;1.23;;;0.73;;
62258;SDS011;48241;48.824;10.102;2023-04-24T01:50:30;1.23;;;0.60;;
62258;SDS011;48241;48.824;10.102;2023-04-24T01:52:55;1.48;;;0.60;;
62258;SDS011;48241;48.824;10.102;2023-04-24T01:55:21;3.00;;;0.88;;
62258;SDS011;48241;48.824;10.102;2023-04-24T01:57:47;2.00;;;0.77;;
62258;SDS011;48241;48.824;10.102;2023-04-24T02:00:12;1.27;;;0.70;;
62258;SDS011;48241;48.824;10.102;2023-04-24T02:02:39;1.73;;;0.65;;
62258;SDS011;48241;48.824;10.102;2023-04-24T02:05:06;0.85;;;0.50;;
62258;SDS011;48241;48.824;10.102;2023-04-24T02:07:32;1.77;;;0.70;;
62258;SDS011;48241;48.824;10.102;2023-04-24T02:09:58;1.95;;;0.70;;
62258;SDS011;48241;48.824;10.102;2023-04-24T02:12:24;2.58;;;0.60;;
62258;SDS011;48241;48.824;10.102;2023-04-24T02:14:50;0.70;;;0.60;;
62258;SDS011;48241;48.824;10.102;2023-04-24T02:17:16;2.97;;;0.60;;
62258;SDS011;48241;48.824;10.102;2023-04-24T02:19:44;1.92;;;0.70;;
62258;SDS011;48241;48.824;10.102;2023-04-24T02:22:09;2.10;;;0.65;;
62258;SDS011;48241;48.824;10.102;2023-04-24T02:24:35;2.75;;;0.70;;
62258;SDS011;48241;48.824;10.102;2023-04-24T02:27:02;2.38;;;0.90;;
62258;SDS011;48241;48.824;10.102;2023-04-24T02:29:27;3.67;;;0.85;;
62258;SDS011;48241;48.824;10.102;2023-04-24T02:31:53;2.90;;;0.60;;
62258;SDS011;48241;48.824;10.102;2023-04-24T02:34:19;5.28;;;0.82;;
62258;SDS011;48241;48.824;10.102;2023-04-24T02:36:44;3.35;;;0.75;;
62258;SDS011;48241;48.824;10.102;2023-04-24T02:39:10;1.90;;;0.55;;
62258;SDS011;48241;48.824;10.102;2023-04-24T02:41:36;2.38;;;0.80;;
62258;SDS011;48241;48.824;10.102;2023-04-24T02:44:01;1.80;;;0.73;;
62258;SDS011;48241;48.824;10.102;2023-04-24T02:46:27;3.35;;;0.90;;
62258;SDS011;48241;48.824;10.102;2023-04-24T02:48:53;3.60;;;0.60;;
62258;SDS011;48241;48.824;10.102;2023-04-24T02:51:18;4.32;;;0.70;;
62258;SDS011;48241;48.824;10.102;2023-04-24T02:53:44;1.50;;;0.68;;
62258;SDS011;48241;48.824;10.102;2023-04-24T02:56:09;1.17;;;0.70;;
62258;SDS011;48241;48.824;10.102;2023-04-24T02:58:37;2.08;;;0.70;;
62258;SDS011;48241;48.824;10.102;2023-04-24T03:01:02;1.50;;;0.70;;
62258;SDS011;48241;48.824;10.102;2023-04-24T03:03:28;0.98;;;0.80;;
62258;SDS011;48241;48.824;10.102;2023-04-24T03:05:54;1.83;;;0.80;;
62258;SDS011;48241;48.824;10.102;2023-04-24T03:08:20;2.95;;;0.98;;
62258;SDS011;48241;48.824;10.102;2023-04-24T03:10:46;2.95;;;0.82;;
62258;SDS011;48241;48.824;10.102;2023-04-24T03:13:11;1.23;;;0.73;;
62258;SDS011;48241;48.824;10.102;2023-04-24T03:15:37;2.65;;;0.80;;
62258;SDS011;48241;48.824;10.102;2023-04-24T03:18:02;1.25;;;0.80;;
62258;SDS011;48241;48.824;10.102;2023-04-24T03:20:28;1.55;;;0.85;;
62258;SDS011;48241;48.824;10.102;2023-04-24T03:22:54;2.20;;;0.70;;
62258;SDS011;48241;48.824;10.102;2023-04-24T03:25:19;2.97;;;0.88;;
62258;SDS011;48241;48.824;10.102;2023-04-24T03:27:45;1.85;;;0.88;;
62258;SDS011;48241;48.824;10.102;2023-04-24T03:30:11;1.00;;;0.60;;
62258;SDS011;48241;48.824;10.102;2023-04-24T03:32:36;3.30;;;0.70;;
62258;SDS011;48241;48.824;10.102;2023-04-24T03:35:04;1.05;;;0.80;;
62258;SDS011;48241;48.824;10.102;2023-04-24T03:37:31;1.50;;;0.75;;
62258;SDS011;48241;48.824;10.102;2023-04-24T03:39:56;1.88;;;0.80;;
62258;SDS011;48241;48.824;10.102;2023-04-24T03:42:22;2.67;;;0.95;;
62258;SDS011;48241;48.824;10.102;2023-04-24T03:44:48;4.60;;;0.80;;
62258;SDS011;48241;48.824;10.102;2023-04-24T03:47:13;2.80;;;0.88;;
62258;SDS011;48241;48.824;10.102;2023-04-24T03:49:39;2.70;;;0.70;;
62258;SDS011;48241;48.824;10.102;2023-04-24T03:52:04;1.02;;;0.85;;
62258;SDS011;48241;48.824;10.102;2023-04-24T03:54:30;0.73;;;0.70;;
62258;SDS011;48241;48.824;10.102;2023-04-24T03:56:55;1.25;;;0.70;;
62258;SDS011;48241;48.824;10.102;2023-04-24T03:59:21;1.95;;;0.70;;
62258;SDS011;48241;48.824;10.102;2023-04-24T04:01:47;1.98;;;0.70;;
62258;SDS011;48241;48.824;10.102;2023-04-24T04:04:12;2.55;;;0.80;;
62258;SDS011;48241;48.824;10.102;2023-04-24T04:06:38;0.70;;;0.60;;
62258;SDS011;48241;48.824;10.102;2023-04-24T04:09:03;0.68;;;0.68;;
62258;SDS011;48241;48.824;10.102;2023-04-24T04:11:29;0.95;;;0.70;;
62258;SDS011;48241;48.824;10.102;2023-04-24T04:13:55;2.35;;;0.70;;
62258;SDS011;48241;48.824;10.102;2023-04-24T04:16:21;2.00;;;0.73;;
62258;SDS011;48241;48.824;10.102;2023-04-24T04:18:47;1.42;;;0.80;;
62258;SDS011;48241;48.824;10.102;2023-04-24T04:21:13;1.17;;;0.80;;
62258;SDS011;48241;48.824;10.102;2023-04-24T04:23:38;1.73;;;0.95;;
62258;SDS011;48241;48.824;10.102;2023-04-24T04:26:04;1.33;;;0.80;;
62258;SDS011;48241;48.824;10.102;2023-04-24T04:28:30;1.60;;;0.90;;
62258;SDS011;48241;48.824;10.102;2023-04-24T04:30:57;2.28;;;0.93;;
62258;SDS011;48241;48.824;10.102;2023-04-24T04:33:26;1.13;;;0.90;;
62258;SDS011;48241;48.824;10.102;2023-04-24T04:35:51;6.18;;;0.95;;
62258;SDS011;48241;48.824;10.102;2023-04-24T04:38:18;1.80;;;0.80;;
62258;SDS011;48241;48.824;10.102;2023-04-24T04:40:44;1.73;;;0.90;;
62258;SDS011;48241;48.824;10.102;2023-04-24T04:43:10;2.22;;;1.00;;
62258;SDS011;48241;48.824;10.102;2023-04-24T04:45:38;1.50;;;0.82;;
62258;SDS011;48241;48.824;10.102;2023-04-24T04:48:05;1.30;;;0.70;;
62258;SDS011;48241;48.824;10.102;2023-04-24T04:50:33;2.13;;;0.70;;
62258;SDS011;48241;48.824;10.102;2023-04-24T04:52:59;0.77;;;0.65;;
62258;SDS011;48241;48.824;10.102;2023-04-24T04:55:25;2.75;;;1.02;;
62258;SDS011;48241;48.824;10.102;2023-04-24T04:57:50;1.23;;;0.73;;
62258;SDS011;48241;48.824;10.102;2023-04-24T05:00:16;2.80;;;0.90;;
62258;SDS011;48241;48.824;10.102;2023-04-24T05:02:42;2.08;;;0.70;;
62258;SDS011;48241;48.824;10.102;2023-04-24T05:05:08;1.30;;;0.60;;
62258;SDS011;48241;48.824;10.102;2023-04-24T05:07:34;1.77;;;0.80;;
62258;SDS011;48241;48.824;10.102;2023-04-24T05:10:00;1.55;;;0.70;;
62258;SDS011;48241;48.824;10.102;2023-04-24T05:12:26;2.30;;;1.20;;
62258;SDS011;48241;48.824;10.102;2023-04-24T05:17:21;1.60;;;0.70;;
62258;SDS011;48241;48.824;10.102;2023-04-24T05:19:46;2.08;;;0.80;;
62258;SDS011;48241;48.824;10.102;2023-04-24T05:22:13;1.50;;;0.70;;
62258;SDS011;48241;48.824;10.102;2023-04-24T05:24:38;1.85;;;0.80;;
62258;SDS011;48241;48.824;10.102;2023-04-24T05:27:04;1.58;;;0.68;;
62258;SDS011;48241;48.824;10.102;2023-04-24T05:29:30;1.38;;;0.82;;
62258;SDS011;48241;48.824;10.102;2023-04-24T05:31:56;1.08;;;0.70;;
62258;SDS011;48241;48.824;10.102;2023-04-24T05:34:22;1.27;;;0.73;;
62258;SDS011;48241;48.824;10.102;2023-04-24T05:36:48;0.95;;;0.60;;
62258;SDS011;48241;48.824;10.102;2023-04-24T05:39:15;0.90;;;0.70;;
62258;SDS011;48241;48.824;10.102;2023-04-24T05:41:41;0.77;;;0.60;;
62258;SDS011;48241;48.824;10.102;2023-04-24T05:44:07;1.70;;;0.57;;
62258;SDS011;48241;48.824;10.102;2023-04-24T05:46:33;2.50;;;0.85;;
62258;SDS011;48241;48.824;10.102;2023-04-24T05:48:58;1.65;;;0.80;;
62258;SDS011;48241;48.824;10.102;2023-04-24T05:51:24;2.33;;;1.15;;
62258;SDS011;48241;48.824;10.102;2023-04-24T05:53:50;3.60;;;1.20;;
62258;SDS011;48241;48.824;10.102;2023-04-24T05:56:16;1.30;;;1.20;;
62258;SDS011;48241;48.824;10.102;2023-04-24T05:58:42;3.97;;;1.33;;
62258;SDS011;48241;48.824;10.102;2023-04-24T06:01:08;1.05;;;0.95;;
62258;SDS011;48241;48.824;10.102;2023-04-24T06:03:34;1.80;;;1.10;;
62258;SDS011;48241;48.824;10.102;2023-04-24T06:06:00;2.75;;;1.20;;
62258;SDS011;48241;48.824;10.102;2023-04-24T06:08:25;2.03;;;1.10;;
62258;SDS011;48241;48.824;10.102;2023-04-24T06:10:51;3.80;;;1.10;;
62258;SDS011;48241;48.824;10.102;2023-04-24T06:13:17;3.05;;;1.35;;
62258;SDS011;48241;48.824;10.102;2023-04-24T06:15:43;1.88;;;1.10;;
62258;SDS011;48241;48.824;10.102;2023-04-24T06:18:08;2.15;;;1.10;;
62258;SDS011;48241;48.824;10.102;2023-04-24T06:20:37;1.20;;;1.10;;
62258;SDS011;48241;48.824;10.102;2023-04-24T06:23:03;2.13;;;1.20;;
62258;SDS011;48241;48.824;10.102;2023-04-24T06:25:28;2.80;;;1.10;;
62258;SDS011;48241;48.824;10.102;2023-04-24T06:27:55;1.17;;;1.00;;
62258;SDS011;48241;48.824;10.102;2023-04-24T06:30:21;2.08;;;1.20;;
62258;SDS011;48241;48.824;10.102;2023-04-24T06:32:47;1.30;;;1.20;;
62258;SDS011;48241;48.824;10.102;2023-04-24T06:35:12;2.67;;;1.00;;
62258;SDS011;48241;48.824;10.102;2023-04-24T06:37:39;1.52;;;1.10;;
62258;SDS011;48241;48.824;10.102;2023-04-24T06:40:05;1.38;;;1.13;;
62258;SDS011;48241;48.824;10.102;2023-04-24T06:42:31;1.75;;;1.15;;
62258;SDS011;48241;48.824;10.102;2023-04-24T06:44:57;2.28;;;1.20;;
62258;SDS011;48241;48.824;10.102;2023-04-24T06:47:22;2.47;;;1.15;;
62258;SDS011;48241;48.824;10.102;2023-04-24T06:49:48;1.55;;;1.00;;
62258;SDS011;48241;48.824;10.102;2023-04-24T06:52:15;1.60;;;1.20;;
62258;SDS011;48241;48.824;10.102;2023-04-24T06:54:41;1.48;;;1.33;;
62258;SDS011;48241;48.824;10.102;2023-04-24T06:57:07;1.23;;;1.13;;
62258;SDS011;48241;48.824;10.102;2023-04-24T06:59:33;1.75;;;1.30;;
62258;SDS011;48241;48.824;10.102;2023-04-24T07:01:58;1.20;;;1.10;;
62258;SDS011;48241;48.824;10.102;2023-04-24T07:04:24;4.25;;;1.55;;
62258;SDS011;48241;48.824;10.102;2023-04-24T07:06:50;1.80;;;1.25;;
62258;SDS011;48241;48.824;10.102;2023-04-24T07:09:16;2.55;;;1.20;;
62258;SDS011;48241;48.824;10.102;2023-04-24T07:11:43;1.85;;;1.30;;
62258;SDS011;48241;48.824;10.102;2023-04-24T07:14:09;2.17;;;1.30;;
62258;SDS011;48241;48.824;10.102;2023-04-24T07:16:35;3.05;;;1.30;;
62258;SDS011;48241;48.824;10.102;2023-04-24T07:19:01;1.67;;;1.20;;
62258;SDS011;48241;48.824;10.102;2023-04-24T07:21:26;3.33;;;1.38;;
62258;SDS011;48241;48.824;10.102;2023-04-24T07:23:52;1.80;;;1.17;;
62258;SDS011;48241;48.824;10.102;2023-04-24T07:26:19;2.78;;;1.20;;
62258;SDS011;48241;48.824;10.102;2023-04-24T07:28:45;2.63;;;1.30;;
62258;SDS011;48241;48.824;10.102;2023-04-24T07:31:11;1.55;;;1.30;;
62258;SDS011;48241;48.824;10.102;2023-04-24T07:33:37;1.30;;;1.10;;
62258;SDS011;48241;48.824;10.102;2023-04-24T07:36:03;1.60;;;0.98;;
62258;SDS011;48241;48.824;10.102;2023-04-24T07:38:29;2.47;;;1.40;;
62258;SDS011;48241;48.824;10.102;2023-04-24T07:40:55;1.63;;;1.13;;
62258;SDS011;48241;48.824;10.102;2023-04-24T07:43:21;1.75;;;1.50;;
62258;SDS011;48241;48.824;10.102;2023-04-24T07:45:48;2.53;;;2.00;;
62258;SDS011;48241;48.824;10.102;2023-04-24T07:48:14;2.08;;;1.50;;
62258;SDS011;48241;48.824;10.102;2023-04-24T07:50:41;2.00;;;1.30;;
62258;SDS011;48241;48.824;10.102;2023-04-24T07:53:07;2.10;;;1.40;;
62258;SDS011;48241;48.824;10.102;2023-04-24T07:55:33;1.52;;;1.13;;
62258;SDS011;48241;48.824;10.102;2023-04-24T07:57:58;2.33;;;1.10;;
62258;SDS011;48241;48.824;10.102;2023-04-24T08:00:24;1.25;;;1.15;;
62258;SDS011;48241;48.824;10.102;2023-04-24T08:02:50;2.75;;;1.30;;
62258;SDS011;48241;48.824;10.102;2023-04-24T08:05:15;2.25;;;1.48;;
62258;SDS011;48241;48.824;10.102;2023-04-24T08:07:41;2.72;;;1.60;;
62258;SDS011;48241;48.824;10.102;2023-04-24T08:10:09;3.38;;;1.55;;
62258;SDS011;48241;48.824;10.102;2023-04-24T08:12:35;1.88;;;1.60;;
62258;SDS011;48241;48.824;10.102;2023-04-24T08:15:01;3.08;;;1.52;;
62258;SDS011;48241;48.824;10.102;2023-04-24T08:17:27;1.38;;;1.10;;
62258;SDS011;48241;48.824;10.102;2023-04-24T08:19:53;1.35;;;1.00;;
62258;SDS011;48241;48.824;10.102;2023-04-24T08:22:26;1.15;;;1.05;;
62258;SDS011;48241;48.824;10.102;2023-04-24T08:24:54;1.95;;;1.25;;
62258;SDS011;48241;48.824;10.102;2023-04-24T08:27:21;2.67;;;1.35;;
62258;SDS011;48241;48.824;10.102;2023-04-24T08:29:46;2.55;;;1.30;;
62258;SDS011;48241;48.824;10.102;2023-04-24T08:32:12;2.13;;;1.20;;
62258;SDS011;48241;48.824;10.102;2023-04-24T08:34:37;3.72;;;1.35;;
62258;SDS011;48241;48.824;10.102;2023-04-24T08:37:03;2.65;;;1.20;;
62258;SDS011;48241;48.824;10.102;2023-04-24T08:39:29;2.55;;;1.20;;
62258;SDS011;48241;48.824;10.102;2023-04-24T08:41:54;1.42;;;1.30;;
62258;SDS011;48241;48.824;10.102;2023-04-24T08:44:20;1.52;;;1.33;;
62258;SDS011;48241;48.824;10.102;2023-04-24T08:46:49;2.35;;;0.80;;
62258;SDS011;48241;48.824;10.102;2023-04-24T08:49:17;3.92;;;1.05;;
62258;SDS011;48241;48.824;10.102;2023-04-24T08:51:43;1.60;;;1.10;;
62258;SDS011;48241;48.824;10.102;2023-04-24T08:54:10;2.03;;;1.00;;
62258;SDS011;48241;48.824;10.102;2023-04-24T08:56:37;1.67;;;1.17;;
62258;SDS011;48241;48.824;10.102;2023-04-24T08:59:05;3.08;;;1.42;;
62258;SDS011;48241;48.824;10.102;2023-04-24T09:01:31;1.02;;;0.90;;
62258;SDS011;48241;48.824;10.102;2023-04-24T09:04:04;1.10;;;0.93;;
62258;SDS011;48241;48.824;10.102;2023-04-24T09:06:30;1.42;;;0.88;;
62258;SDS011;48241;48.824;10.102;2023-04-24T09:08:57;1.90;;;1.00;;
62258;SDS011;48241;48.824;10.102;2023-04-24T09:11:25;2.40;;;0.90;;
62258;SDS011;48241;48.824;10.102;2023-04-24T09:13:53;1.10;;;1.00;;
62258;SDS011;48241;48.824;10.102;2023-04-24T09:16:19;1.27;;;1.00;;
62258;SDS011;48241;48.824;10.102;2023-04-24T09:18:45;1.00;;;0.90;;
62258;SDS011;48241;48.824;10.102;2023-04-24T09:21:11;1.52;;;0.90;;
62258;SDS011;48241;48.824;10.102;2023-04-24T09:23:36;2.45;;;1.40;;
62258;SDS011;48241;48.824;10.102;2023-04-24T09:26:03;2.58;;;1.08;;
62258;SDS011;48241;48.824;10.102;2023-04-24T09:28:36;2.08;;;1.20;;
62258;SDS011;48241;48.824;10.102;2023-04-24T09:33:38;1.17;;;1.05;;
62258;SDS011;48241;48.824;10.102;2023-04-24T09:36:04;1.83;;;1.20;;
62258;SDS011;48241;48.824;10.102;2023-04-24T09:38:40;1.50;;;1.10;;
62258;SDS011;48241;48.824;10.102;2023-04-24T09:41:06;2.88;;;1.20;;
62258;SDS011;48241;48.824;10.102;2023-04-24T09:43:33;2.45;;;1.20;;
62258;SDS011;48241;48.824;10.102;2023-04-24T09:46:05;1.90;;;1.27;;
62258;SDS011;48241;48.824;10.102;2023-04-24T09:48:36;2.00;;;1.20;;
62258;SDS011;48241;48.824;10.102;2023-04-24T09:51:03;1.80;;;0.95;;
62258;SDS011;48241;48.824;10.102;2023-04-24T09:53:31;2.85;;;0.90;;
62258;SDS011;48241;48.824;10.102;2023-04-24T09:56:10;1.95;;;0.90;;
62258;SDS011;48241;48.824;10.102;2023-04-24T09:58:37;2.00;;;1.00;;
62258;SDS011;48241;48.824;10.102;2023-04-24T10:01:04;1.02;;;0.93;;
62258;SDS011;48241;48.824;10.102;2023-04-24T10:03:30;1.73;;;1.02;;
62258;SDS011;48241;48.824;10.102;2023-04-24T10:06:01;1.40;;;0.90;;
62258;SDS011;48241;48.824;10.102;2023-04-24T10:08:33;1.23;;;0.98;;
62258;SDS011;48241;48.824;10.102;2023-04-24T10:11:00;1.70;;;0.83;;
62258;SDS011;48241;48.824;10.102;2023-04-24T10:13:26;1.77;;;0.90;;
62258;SDS011;48241;48.824;10.102;2023-04-24T10:15:52;1.77;;;1.10;;
62258;SDS011;48241;48.824;10.102;2023-04-24T10:18:19;2.10;;;1.20;;
62258;SDS011;48241;48.824;10.102;2023-04-24T10:20:46;1.33;;;1.10;;
62258;SDS011;48241;48.824;10.102;2023-04-24T10:23:12;1.30;;;1.10;;
62258;SDS011;48241;48.824;10.102;2023-04-24T10:25:38;2.17;;;1.40;;
62258;SDS011;48241;48.824;10.102;2023-04-24T10:28:04;2.08;;;1.42;;
62258;SDS011;48241;48.824;10.102;2023-04-24T10:30:31;2.95;;;1.50;;
62258;SDS011;48241;48.824;10.102;2023-04-24T10:33:01;2.90;;;1.42;;
62258;SDS011;48241;48.824;10.102;2023-04-24T10:35:31;2.50;;;1.17;;
62258;SDS011;48241;48.824;10.102;2023-04-24T10:38:02;2.25;;;1.10;;
62258;SDS011;48241;48.824;10.102;2023-04-24T10:40:36;1.63;;;1.40;;
62258;SDS011;48241;48.824;10.102;2023-04-24T10:43:03;2.55;;;1.45;;
62258;SDS011;48241;48.824;10.102;2023-04-24T10:45:34;2.37;;;1.30;;
62258;SDS011;48241;48.824;10.102;2023-04-24T10:48:02;2.95;;;1.13;;
62258;SDS011;48241;48.824;10.102;2023-04-24T10:50:47;1.83;;;1.38;;
62258;SDS011;48241;48.824;10.102;2023-04-24T10:53:20;2.42;;;1.38;;
62258;SDS011;48241;48.824;10.102;2023-04-24T10:55:49;1.95;;;1.20;;
62258;SDS011;48241;48.824;10.102;2023-04-24T10:58:16;1.58;;;1.30;;
62258;SDS011;48241;48.824;10.102;2023-04-24T11:03:26;1.25;;;1.15;;
62258;SDS011;48241;48.824;10.102;2023-04-24T11:05:55;3.60;;;1.23;;
62258;SDS011;48241;48.824;10.102;2023-04-24T11:08:25;1.83;;;1.20;;
62258;SDS011;48241;48.824;10.102;2023-04-24T11:10:58;1.73;;;1.00;;
62258;SDS011;48241;48.824;10.102;2023-04-24T11:13:27;2.10;;;1.20;;
62258;SDS011;48241;48.824;10.102;2023-04-24T11:16:15;1.70;;;1.00;;
62258;SDS011;48241;48.824;10.102;2023-04-24T11:19:07;2.80;;;1.15;;
62258;SDS011;48241;48.824;10.102;2023-04-24T11:21:55;3.05;;;0.90;;
62258;SDS011;48241;48.824;10.102;2023-04-24T11:24:28;1.48;;;0.95;;
62258;SDS011;48241;48.824;10.102;2023-04-24T11:29:42;2.22;;;1.00;;
62258;SDS011;48241;48.824;10.102;2023-04-24T11:32:16;1.38;;;1.17;;
62258;SDS011;48241;48.824;10.102;2023-04-24T11:35:01;2.45;;;1.35;;
62258;SDS011;48241;48.824;10.102;2023-04-24T11:40:02;3.10;;;1.20;;
62258;SDS011;48241;48.824;10.102;2023-04-24T11:42:33;2.47;;;0.98;;
62258;SDS011;48241;48.824;10.102;2023-04-24T11:45:00;1.85;;;1.15;;
62258;SDS011;48241;48.824;10.102;2023-04-24T11:47:32;3.92;;;1.20;;
62258;SDS011;48241;48.824;10.102;2023-04-24T11:49:58;2.78;;;0.90;;
62258;SDS011;48241;48.824;10.102;2023-04-24T11:52:25;1.15;;;1.05;;
62258;SDS011;48241;48.824;10.102;2023-04-24T11:54:51;1.52;;;1.15;;
62258;SDS011;48241;48.824;10.102;2023-04-24T11:57:20;1.90;;;1.00;;
62258;SDS011;48241;48.824;10.102;2023-04-24T11:59:47;1.10;;;0.80;;
62258;SDS011;48241;48.824;10.102;2023-04-24T12:02:26;1.00;;;1.00;;
62258;SDS011;48241;48.824;10.102;2023-04-24T12:04:55;1.33;;;1.10;;
62258;SDS011;48241;48.824;10.102;2023-04-24T12:07:21;1.85;;;1.20;;
62258;SDS011;48241;48.824;10.102;2023-04-24T12:09:48;0.93;;;0.93;;
62258;SDS011;48241;48.824;10.102;2023-04-24T12:12:25;1.98;;;1.00;;
62258;SDS011;48241;48.824;10.102;2023-04-24T12:14:53;2.78;;;1.10;;
62258;SDS011;48241;48.824;10.102;2023-04-24T12:17:30;2.15;;;1.00;;
62258;SDS011;48241;48.824;10.102;2023-04-24T12:20:06;2.42;;;1.30;;
62258;SDS011;48241;48.824;10.102;2023-04-24T12:25:19;1.92;;;1.20;;
62258;SDS011;48241;48.824;10.102;2023-04-24T12:27:46;2.13;;;1.08;;
62258;SDS011;48241;48.824;10.102;2023-04-24T12:30:19;1.52;;;1.20;;
62258;SDS011;48241;48.824;10.102;2023-04-24T12:32:46;1.75;;;1.00;;
62258;SDS011;48241;48.824;10.102;2023-04-24T12:35:13;1.55;;;0.85;;
62258;SDS011;48241;48.824;10.102;2023-04-24T12:37:43;1.90;;;0.88;;
62258;SDS011;48241;48.824;10.102;2023-04-24T12:40:10;1.35;;;0.90;;
62258;SDS011;48241;48.824;10.102;2023-04-24T12:42:44;1.92;;;0.80;;
62258;SDS011;48241;48.824;10.102;2023-04-24T12:45:10;1.02;;;0.73;;
62258;SDS011;48241;48.824;10.102;2023-04-24T12:47:37;1.33;;;0.90;;
62258;SDS011;48241;48.824;10.102;2023-04-24T12:50:04;1.10;;;0.85;;
62258;SDS011;48241;48.824;10.102;2023-04-24T12:52:30;1.05;;;0.80;;
62258;SDS011;48241;48.824;10.102;2023-04-24T12:54:57;3.00;;;1.05;;
62258;SDS011;48241;48.824;10.102;2023-04-24T12:57:25;1.17;;;0.98;;
62258;SDS011;48241;48.824;10.102;2023-04-24T12:59:55;2.10;;;1.10;;
62258;SDS011;48241;48.824;10.102;2023-04-24T13:02:22;1.73;;;0.93;;
62258;SDS011;48241;48.824;10.102;2023-04-24T13:04:48;1.13;;;0.93;;
62258;SDS011;48241;48.824;10.102;2023-04-24T13:07:14;1.20;;;0.80;;
62258;SDS011;48241;48.824;10.102;2023-04-24T13:09:41;3.78;;;1.00;;
62258;SDS011;48241;48.824;10.102;2023-04-24T13:12:07;1.40;;;0.98;;
62258;SDS011;48241;48.824;10.102;2023-04-24T13:14:33;1.15;;;0.85;;
62258;SDS011;48241;48.824;10.102;2023-04-24T13:16:59;1.38;;;1.10;;
62258;SDS011;48241;48.824;10.102;2023-04-24T13:19:25;1.15;;;0.95;;
62258;SDS011;48241;48.824;10.102;2023-04-24T13:21:52;1.52;;;0.93;;
62258;SDS011;48241;48.824;10.102;2023-04-24T13:24:22;1.92;;;1.13;;
62258;SDS011;48241;48.824;10.102;2023-04-24T13:26:54;1.70;;;1.10;;
62258;SDS011;48241;48.824;10.102;2023-04-24T13:29:21;1.27;;;1.00;;
62258;SDS011;48241;48.824;10.102;2023-04-24T13:31:49;1.92;;;1.10;;
62258;SDS011;48241;48.824;10.102;2023-04-24T13:34:16;1.30;;;0.95;;
62258;SDS011;48241;48.824;10.102;2023-04-24T13:36:42;2.42;;;1.00;;
62258;SDS011;48241;48.824;10.102;2023-04-24T13:39:08;2.55;;;1.10;;
62258;SDS011;48241;48.824;10.102;2023-04-24T13:41:35;1.60;;;1.15;;
62258;SDS011;48241;48.824;10.102;2023-04-24T13:44:01;2.00;;;1.00;;
62258;SDS011;48241;48.824;10.102;2023-04-24T13:46:28;1.98;;;1.20;;
62258;SDS011;48241;48.824;10.102;2023-04-24T13:48:54;1.90;;;1.05;;
62258;SDS011;48241;48.824;10.102;2023-04-24T13:51:19;1.20;;;1.08;;
62258;SDS011;48241;48.824;10.102;2023-04-24T13:53:45;1.23;;;1.00;;
62258;SDS011;48241;48.824;10.102;2023-04-24T13:56:11;2.13;;;1.30;;
62258;SDS011;48241;48.824;10.102;2023-04-24T13:58:37;1.25;;;1.15;;
62258;SDS011;48241;48.824;10.102;2023-04-24T14:01:03;1.50;;;1.20;;
62258;SDS011;48241;48.824;10.102;2023-04-24T14:03:29;2.25;;;1.20;;
62258;SDS011;48241;48.824;10.102;2023-04-24T14:05:54;1.20;;;1.10;;
62258;SDS011;48241;48.824;10.102;2023-04-24T14:08:20;2.20;;;1.00;;
62258;SDS011;48241;48.824;10.102;2023-04-24T14:10:46;1.75;;;1.20;;
62258;SDS011;48241;48.824;10.102;2023-04-24T14:13:11;2.42;;;1.20;;
62258;SDS011;48241;48.824;10.102;2023-04-24T14:15:37;2.45;;;1.10;;
62258;SDS011;48241;48.824;10.102;2023-04-24T14:18:03;1.20;;;1.08;;
62258;SDS011;48241;48.824;10.102;2023-04-24T14:20:29;1.88;;;0.93;;
62258;SDS011;48241;48.824;10.102;2023-04-24T14:22:55;2.90;;;1.20;;
62258;SDS011;48241;48.824;10.102;2023-04-24T14:25:23;2.67;;;1.10;;
62258;SDS011;48241;48.824;10.102;2023-04-24T14:27:49;2.47;;;1.48;;
62258;SDS011;48241;48.824;10.102;2023-04-24T14:30:15;2.45;;;1.10;;
62258;SDS011;48241;48.824;10.102;2023-04-24T14:32:41;1.52;;;1.30;;
62258;SDS011;48241;48.824;10.102;2023-04-24T14:35:06;1.33;;;1.20;;
62258;SDS011;48241;48.824;10.102;2023-04-24T14:37:32;2.05;;;0.98;;
62258;SDS011;48241;48.824;10.102;2023-04-24T14:39:58;2.45;;;1.50;;
62258;SDS011;48241;48.824;10.102;2023-04-24T14:42:31;1.48;;;1.15;;
62258;SDS011;48241;48.824;10.102;2023-04-24T14:44:56;2.10;;;1.20;;
62258;SDS011;48241;48.824;10.102;2023-04-24T14:47:22;1.40;;;1.20;;